Time;durP1;ratioP1;P1;durP2;ratioP2;P2;SDS_P1;SDS_P2;PMS_P1;PMS_P2;Temp;Humidity;BMP_temperature;BMP_pressure;BME280_temperature;BME280_humidity;BME280_pressure;Samples;Min_cycle;Max_cycle;Signal;HPM_P1;HPM_P2
2022/09/21 00:00:10;;;;;;;;;;;;;;;-144.99;92.12;52283.00;5053836;28;20384;-80
2022/09/21 00:02:36;;;;;;;;;;;;;;;-144.99;92.28;52317.66;5068012;28;20057;-80
2022/09/21 00:05:03;;;;;;;;;;;;;;;-144.99;92.41;52325.81;5070476;28;19924;-80
2022/09/21 00:07:30;;;;;;;;;;;;;;;-144.99;91.91;52309.50;5071004;28;19932;-79
2022/09/21 00:09:57;;;;;;;;;;;;;;;-144.99;91.51;52333.94;5061095;28;19925;-80
2022/09/21 00:12:24;;;;;;;;;;;;;;;-144.99;91.39;52289.13;5051624;28;19924;-80
2022/09/21 00:14:50;;;;;;;;;;;;;;;-144.99;90.98;52305.41;5062912;28;20084;-79
2022/09/21 00:17:16;;;;;;;;;;;;;;;-144.99;90.83;52303.38;5060838;28;19928;-79
2022/09/21 00:19:43;;;;;;;;;;;;;;;-144.99;91.22;52276.88;5058781;28;19928;-80
2022/09/21 00:22:09;;;;;;;;;;;;;;;-144.99;91.14;52309.50;5071325;28;19924;-77
2022/09/21 00:24:37;;;;;;;;;;;;;;;-144.99;91.46;52305.41;5071881;28;19964;-78
2022/09/21 00:27:04;;;;;;;;;;;;;;;-144.99;92.07;52313.56;5067413;28;20032;-76
2022/09/21 00:29:30;;;;;;;;;;;;;;;-144.99;91.43;52338.03;5051480;28;20228;-77
2022/09/21 00:31:57;;;;;;;;;;;;;;;-144.99;91.35;52299.31;5062616;28;19946;-80
2022/09/21 00:34:23;;;;;;;;;;;;;;;-144.99;92.33;52307.47;5065656;28;19951;-80
2022/09/21 00:36:50;;;;;;;;;;;;;;;-144.99;92.57;52301.34;5059493;28;19928;-81
2022/09/21 00:39:16;;;;;;;;;;;;;;;-144.99;92.45;52278.91;5060602;28;19963;-80
2022/09/21 00:41:44;;;;;;;;;;;;;;;-144.99;92.26;52317.66;5060895;28;20431;-78
2022/09/21 00:44:23;;;;;;;;;;;;;;;-144.99;92.16;52317.66;5050706;28;19932;-80
2022/09/21 00:46:51;;;;;;;;;;;;;;;-144.99;92.04;52301.34;5057073;28;20433;-79
2022/09/21 00:49:17;;;;;;;;;;;;;;;-144.99;91.96;52317.66;5058808;28;19924;-79
2022/09/21 00:51:45;;;;;;;;;;;;;;;-144.99;91.60;52297.25;5082865;28;19964;-74
2022/09/21 00:54:14;;;;;;;;;;;;;;;-144.99;91.61;52301.34;5067175;28;20392;-78
2022/09/21 00:56:41;;;;;;;;;;;;;;;-144.99;91.84;52327.84;5058244;28;19936;-78
2022/09/21 00:59:09;;;;;;;;;;;;;;;-144.99;91.53;52309.50;5066101;28;19933;-78
2022/09/21 01:01:37;;;;;;;;;;;;;;;-144.99;91.17;52301.34;5053156;28;19929;-78
2022/09/21 01:04:04;;;;;;;;;;;;;;;-144.99;91.72;52305.41;5060492;28;20017;-76
2022/09/21 01:06:32;;;;;;;;;;;;;;;-144.99;92.03;52305.41;5068122;28;19925;-78
2022/09/21 01:08:59;;;;;;;;;;;;;;;-144.99;91.74;52313.56;5078530;28;19929;-80
2022/09/21 01:11:29;;;;;;;;;;;;;;;-144.99;91.38;52305.41;5072957;28;19934;-80
2022/09/21 01:14:05;;;;;;;;;;;;;;;-144.99;91.05;52293.19;5087748;28;19933;-80
2022/09/21 01:16:35;;;;;;;;;;;;;;;-144.99;91.27;52327.84;5085077;28;19931;-80
2022/09/21 01:19:10;;;;;;;;;;;;;;;-144.99;90.98;52305.41;5074536;28;19992;-75
2022/09/21 01:21:41;;;;;;;;;;;;;;;-144.99;90.78;52317.66;5078740;28;20003;-78
2022/09/21 01:24:31;;;;;;;;;;;;;;;-144.99;90.91;52305.41;5069913;28;20427;-78
2022/09/21 01:27:30;;;;;;;;;;;;;;;-144.99;91.02;52350.25;5077349;28;19924;-80
2022/09/21 01:30:01;;;;;;;;;;;;;;;-144.99;91.21;52325.81;5057402;28;20276;-80
2022/09/21 01:32:29;;;;;;;;;;;;;;;-144.99;91.39;52301.34;5056345;28;19925;-81
2022/09/21 01:34:59;;;;;;;;;;;;;;;-144.99;92.20;52289.13;5065850;28;19925;-80
2022/09/21 01:37:29;;;;;;;;;;;;;;;-144.99;92.82;52301.34;5071446;28;19932;-80
2022/09/21 01:39:59;;;;;;;;;;;;;;;-144.99;93.57;52342.09;5073186;28;19924;-81
2022/09/21 01:42:26;;;;;;;;;;;;;;;-144.99;94.10;52287.06;5071979;28;19925;-77
2022/09/21 01:44:55;;;;;;;;;;;;;;;-144.99;94.60;52321.72;5079406;28;19925;-79
2022/09/21 01:47:24;;;;;;;;;;;;;;;-144.99;95.57;52299.31;5075667;28;20398;-79
2022/09/21 01:49:54;;;;;;;;;;;;;;;-144.99;96.87;52313.56;5077142;28;19924;-80
2022/09/21 01:52:23;;;;;;;;;;;;;;;-144.99;97.98;52321.72;5075601;28;20031;-78
2022/09/21 01:54:52;;;;;;;;;;;;;;;-144.99;98.86;52317.66;5067343;28;19932;-79
2022/09/21 01:57:24;;;;;;;;;;;;;;;-144.99;99.15;52305.41;5059360;28;19925;-80
2022/09/21 01:59:52;;;;;;;;;;;;;;;-144.99;98.80;52297.25;5066212;28;20560;-80
2022/09/21 02:02:21;;;;;;;;;;;;;;;-144.99;99.41;52317.66;5060621;28;19935;-81
2022/09/21 02:04:49;;;;;;;;;;;;;;;-144.99;99.85;52309.50;5054473;28;19925;-80
2022/09/21 02:07:16;;;;;;;;;;;;;;;-144.99;99.79;52338.03;5067580;28;20143;-80
2022/09/21 02:09:42;;;;;;;;;;;;;;;-144.99;99.62;52301.34;5074233;28;19996;-80
2022/09/21 02:12:09;;;;;;;;;;;;;;;-144.99;99.42;52313.56;5067712;28;20045;-77
2022/09/21 02:14:37;;;;;;;;;;;;;;;-144.99;99.71;52327.84;5051738;28;19976;-78
2022/09/21 02:17:06;;;;;;;;;;;;;;;-144.99;100.00;52305.41;5052784;28;19924;-77
2022/09/21 02:19:40;;;;;;;;;;;;;;;-144.99;100.00;52297.25;5069692;28;19928;-78
2022/09/21 02:22:11;;;;;;;;;;;;;;;-144.99;100.00;52358.41;5063177;28;19925;-79
2022/09/21 02:24:41;;;;;;;;;;;;;;;-144.99;100.00;52319.69;5055372;28;20105;-79
2022/09/21 02:27:13;;;;;;;;;;;;;;;-144.99;100.00;52313.56;5051485;28;19974;-77
2022/09/21 02:29:45;;;;;;;;;;;;;;;-144.99;100.00;52317.66;5051268;28;20269;-77
2022/09/21 02:32:15;;;;;;;;;;;;;;;-144.99;100.00;52305.41;5060773;28;19964;-78
2022/09/21 02:34:45;;;;;;;;;;;;;;;-144.99;100.00;52293.19;5057285;28;19959;-80
2022/09/21 02:37:18;;;;;;;;;;;;;;;-144.99;100.00;52309.50;5071595;28;20015;-80
2022/09/21 02:39:48;;;;;;;;;;;;;;;-144.99;100.00;52346.19;5067727;28;19925;-77
2022/09/21 02:42:17;;;;;;;;;;;;;;;-144.99;100.00;52336.00;5061276;28;20447;-78
2022/09/21 02:44:46;;;;;;;;;;;;;;;-144.99;100.00;52313.56;5070479;28;20011;-78
2022/09/21 02:47:16;;;;;;;;;;;;;;;-144.99;100.00;52295.22;5067274;28;19928;-79
2022/09/21 02:49:46;;;;;;;;;;;;;;;-144.99;100.00;52331.91;5069563;28;19932;-77
2022/09/21 02:52:16;;;;;;;;;;;;;;;-144.99;100.00;52366.56;5063006;28;20455;-79
2022/09/21 02:54:45;;;;;;;;;;;;;;;-144.99;100.00;52305.41;5055756;28;19971;-78
2022/09/21 02:57:12;;;;;;;;;;;;;;;-144.99;100.00;52342.09;5054223;28;19980;-77
2022/09/21 02:59:38;;;;;;;;;;;;;;;-144.99;100.00;52354.34;5074636;28;19925;-77
2022/09/21 03:02:05;;;;;;;;;;;;;;;-144.99;100.00;52358.41;5065638;28;20356;-79
2022/09/21 03:04:32;;;;;;;;;;;;;;;-144.99;100.00;52344.16;5058127;28;19932;-77
2022/09/21 03:06:58;;;;;;;;;;;;;;;-144.99;100.00;52297.25;5072910;28;19925;-78
2022/09/21 03:09:26;;;;;;;;;;;;;;;-144.99;100.00;52333.94;5077303;28;19913;-80
2022/09/21 03:11:52;;;;;;;;;;;;;;;-144.99;100.00;52301.34;5068321;28;19943;-77
2022/09/21 03:14:19;;;;;;;;;;;;;;;-144.99;100.00;52289.13;5078172;28;19925;-78
2022/09/21 03:16:45;;;;;;;;;;;;;;;-144.99;100.00;52311.53;5084353;28;19925;-80
2022/09/21 03:19:12;;;;;;;;;;;;;;;-144.99;100.00;52346.19;5089601;28;19928;-77
2022/09/21 03:21:38;;;;;;;;;;;;;;;-144.99;100.00;52305.41;5080511;28;19932;-79
2022/09/21 03:24:04;;;;;;;;;;;;;;;-144.99;100.00;52329.88;5083601;28;19991;-81
2022/09/21 03:26:33;;;;;;;;;;;;;;;-144.99;100.00;52333.94;5080463;28;19980;-84
2022/09/21 03:29:00;;;;;;;;;;;;;;;-144.99;100.00;52305.41;5076174;28;20020;-80
2022/09/21 03:31:26;;;;;;;;;;;;;;;-144.99;100.00;52313.56;5072447;28;19935;-78
2022/09/21 03:33:53;;;;;;;;;;;;;;;-144.99;100.00;52311.53;5067312;28;19992;-78
2022/09/21 03:36:19;;;;;;;;;;;;;;;-144.99;100.00;52301.34;5069711;28;19930;-80
2022/09/21 03:38:46;;;;;;;;;;;;;;;-144.99;100.00;52289.13;5061295;28;19978;-78
2022/09/21 03:41:14;;;;;;;;;;;;;;;-144.99;100.00;52309.50;5080430;28;19980;-77
2022/09/21 03:43:41;;;;;;;;;;;;;;;-144.99;100.00;52285.03;5080674;28;19979;-77
2022/09/21 03:46:08;;;;;;;;;;;;;;;-144.99;100.00;52291.16;5070094;28;19934;-77
2022/09/21 03:48:34;;;;;;;;;;;;;;;-144.99;100.00;52333.94;5063004;28;19935;-78
2022/09/21 03:51:00;;;;;;;;;;;;;;;-144.99;100.00;52260.56;5087259;22;19928;-75
2022/09/21 03:53:27;;;;;;;;;;;;;;;-144.99;100.00;52309.50;5059474;28;19924;-74
2022/09/21 03:55:53;;;;;;;;;;;;;;;-144.99;100.00;52329.88;5067280;28;19932;-72
2022/09/21 03:58:21;;;;;;;;;;;;;;;-144.99;100.00;52333.94;5067174;28;19928;-71
2022/09/21 04:00:49;;;;;;;;;;;;;;;-144.99;100.00;52313.56;5067113;28;19931;-72
2022/09/21 04:03:15;;;;;;;;;;;;;;;-144.99;100.00;52333.94;5067283;28;19924;-71
2022/09/21 04:05:41;;;;;;;;;;;;;;;-144.99;100.00;52313.56;5055900;28;19944;-72
2022/09/21 04:08:08;;;;;;;;;;;;;;;-144.99;100.00;52301.34;5063249;28;19924;-72
2022/09/21 04:10:35;;;;;;;;;;;;;;;-144.99;100.00;52342.09;5055494;28;20451;-71
2022/09/21 04:13:03;;;;;;;;;;;;;;;-144.99;100.00;52291.16;5065614;28;19948;-71
2022/09/21 04:15:30;;;;;;;;;;;;;;;-144.99;100.00;52305.41;5055896;28;20319;-77
2022/09/21 04:17:58;;;;;;;;;;;;;;;-144.99;100.00;52264.66;5049568;28;19932;-74
2022/09/21 04:20:24;;;;;;;;;;;;;;;-144.99;100.00;52280.97;5059666;28;19925;-74
2022/09/21 04:22:51;;;;;;;;;;;;;;;-144.99;100.00;52317.66;5066519;28;19928;-72
2022/09/21 04:25:18;;;;;;;;;;;;;;;-144.99;100.00;52325.81;5070478;28;19931;-72
2022/09/21 04:27:44;;;;;;;;;;;;;;;-144.99;100.00;52329.88;5061033;28;20645;-72
2022/09/21 04:30:11;;;;;;;;;;;;;;;-144.99;100.00;52317.66;5067294;28;20240;-73
2022/09/21 04:32:38;;;;;;;;;;;;;;;-144.99;100.00;52285.03;5052535;28;19931;-73
2022/09/21 04:35:06;;;;;;;;;;;;;;;-144.99;100.00;52327.84;5070578;28;19929;-71
2022/09/21 04:37:32;;;;;;;;;;;;;;;-144.99;100.00;52329.88;5047800;28;19936;-72
2022/09/21 04:39:58;;;;;;;;;;;;;;;-144.99;100.00;52342.09;5065296;28;19925;-73
2022/09/21 04:42:26;;;;;;;;;;;;;;;-144.99;100.00;52323.75;5065818;28;20451;-73
2022/09/21 04:44:52;;;;;;;;;;;;;;;-144.99;100.00;52325.81;5060724;28;20115;-74
2022/09/21 04:47:22;;;;;;;;;;;;;;;-144.99;100.00;52285.03;5062194;28;20379;-74
2022/09/21 04:49:48;;;;;;;;;;;;;;;-144.99;100.00;52303.38;5054223;28;20380;-75
2022/09/21 04:52:16;;;;;;;;;;;;;;;-144.99;100.00;52350.25;5066379;28;19931;-77
2022/09/21 04:54:43;;;;;;;;;;;;;;;-144.99;100.00;52291.16;5069516;28;19943;-76
2022/09/21 04:57:09;;;;;;;;;;;;;;;-144.99;100.00;52305.41;5060444;28;19929;-73
2022/09/21 04:59:35;;;;;;;;;;;;;;;-144.99;100.00;52285.03;5066893;28;19928;-75
2022/09/21 05:02:02;;;;;;;;;;;;;;;-144.99;100.00;52270.78;5065676;28;19930;-74
2022/09/21 05:04:28;;;;;;;;;;;;;;;-144.99;100.00;52319.69;4360817;28;10000804;-76
2022/09/21 05:06:57;;;;;;;;;;;;;;;-144.99;100.00;52321.72;5054961;28;19925;-77
2022/09/21 05:12:08;;;;;;;;;;;;;;;-144.99;100.00;52301.34;5045363;28;20013;-76
2022/09/21 05:14:35;;;;;;;;;;;;;;;-144.99;100.00;52297.25;5055863;28;19924;-75
2022/09/21 05:17:01;;;;;;;;;;;;;;;-144.99;100.00;52295.22;5068362;28;19947;-76
2022/09/21 05:19:28;;;;;;;;;;;;;;;-144.99;100.00;52280.97;5051054;28;19929;-76
2022/09/21 05:21:54;;;;;;;;;;;;;;;-144.99;100.00;52338.03;5061765;28;19929;-76
2022/09/21 05:24:20;;;;;;;;;;;;;;;-144.99;100.00;52342.09;5064953;28;19933;-76
2022/09/21 05:26:48;;;;;;;;;;;;;;;-144.99;100.00;52311.53;5057195;28;19934;-75
2022/09/21 05:29:15;;;;;;;;;;;;;;;-144.99;100.00;52346.19;5061679;28;19929;-76
2022/09/21 05:31:43;;;;;;;;;;;;;;;-144.99;100.00;52301.34;5058652;28;20023;-75
2022/09/21 05:34:21;;;;;;;;;;;;;;;-144.99;100.00;52313.56;5073107;28;20575;-74
2022/09/21 05:36:51;;;;;;;;;;;;;;;-144.99;100.00;52303.38;5057274;28;19935;-73
2022/09/21 05:39:18;;;;;;;;;;;;;;;-144.99;100.00;52323.75;5057174;28;19928;-76
2022/09/21 05:41:44;;;;;;;;;;;;;;;-144.99;100.00;52315.59;5050022;28;20435;-76
2022/09/21 05:44:14;;;;;;;;;;;;;;;-144.99;100.00;52327.84;5047999;28;20261;-76
2022/09/21 05:46:41;;;;;;;;;;;;;;;-144.99;100.00;52301.34;5064554;28;19936;-75
2022/09/21 05:49:14;;;;;;;;;;;;;;;-144.99;100.00;52319.69;5060193;28;20262;-76
2022/09/21 05:51:44;;;;;;;;;;;;;;;-144.99;100.00;52301.34;5056480;28;19929;-74
2022/09/21 05:54:14;;;;;;;;;;;;;;;-144.99;100.00;52325.81;5066727;28;20423;-75
2022/09/21 05:56:45;;;;;;;;;;;;;;;-144.99;100.00;52301.34;5048934;28;20550;-74
2022/09/21 05:59:25;;;;;;;;;;;;;;;-144.99;100.00;52289.13;5068509;28;19936;-76
2022/09/21 06:01:57;;;;;;;;;;;;;;;-144.99;100.00;52315.59;5055998;28;20015;-75
2022/09/21 06:04:24;;;;;;;;;;;;;;;-144.99;100.00;52327.84;5068110;28;19956;-75
2022/09/21 06:06:50;;;;;;;;;;;;;;;-144.99;100.00;52333.94;5067050;28;20476;-76
2022/09/21 06:09:16;;;;;;;;;;;;;;;-144.99;100.00;52256.50;5068384;28;19968;-76
2022/09/21 06:11:43;;;;;;;;;;;;;;;-144.99;100.00;52301.34;5060854;28;19928;-76
2022/09/21 06:14:09;;;;;;;;;;;;;;;-144.99;100.00;52291.16;5052853;28;19935;-76
2022/09/21 06:16:41;;;;;;;;;;;;;;;-144.99;100.00;52317.66;5053173;28;19958;-76
2022/09/21 06:19:10;;;;;;;;;;;;;;;-144.99;100.00;52264.66;5062704;28;19929;-76
2022/09/21 06:21:37;;;;;;;;;;;;;;;-144.99;100.00;52293.19;5049993;28;19967;-76
2022/09/21 06:24:03;;;;;;;;;;;;;;;-144.99;100.00;52289.13;5058961;28;19952;-76
2022/09/21 06:26:30;;;;;;;;;;;;;;;-144.99;100.00;52285.03;5063100;28;19929;-75
2022/09/21 06:28:56;;;;;;;;;;;;;;;-144.99;100.00;52287.06;5058179;28;20435;-74
2022/09/21 06:31:23;;;;;;;;;;;;;;;-144.99;100.00;52276.88;5059289;28;20035;-75
2022/09/21 06:33:50;;;;;;;;;;;;;;;-144.99;100.00;52297.25;5067310;28;19935;-76
2022/09/21 06:36:17;;;;;;;;;;;;;;;-144.99;100.00;52293.19;5067033;28;19928;-80
2022/09/21 06:38:43;;;;;;;;;;;;;;;-144.99;100.00;52293.19;5073033;28;19975;-77
2022/09/21 06:41:10;;;;;;;;;;;;;;;-144.99;100.00;52297.25;5058959;28;19929;-77
2022/09/21 06:43:36;;;;;;;;;;;;;;;-144.99;100.00;52215.75;5066646;28;19928;-77
2022/09/21 06:46:03;;;;;;;;;;;;;;;-144.99;100.00;52252.44;5065789;28;20446;-76
2022/09/21 06:48:31;;;;;;;;;;;;;;;-144.99;100.00;52232.03;4702642;28;10000111;-77
2022/09/21 06:50:59;;;;;;;;;;;;;;;-144.99;100.00;52280.97;5056852;28;19928;-75
2022/09/21 06:53:25;;;;;;;;;;;;;;;-144.99;100.00;52280.97;5056139;28;19962;-76
2022/09/21 06:55:52;;;;;;;;;;;;;;;-144.99;100.00;52289.13;5067516;28;19929;-75
2022/09/21 06:58:18;;;;;;;;;;;;;;;-144.99;100.00;52283.00;5066790;28;19939;-76
2022/09/21 07:00:45;;;;;;;;;;;;;;;-144.99;100.00;52301.34;5063690;28;19928;-74
2022/09/21 07:03:12;;;;;;;;;;;;;;;-144.99;100.00;52248.34;5047273;28;19929;-75
2022/09/21 07:05:38;;;;;;;;;;;;;;;-144.99;100.00;52256.50;5065110;28;20031;-75
2022/09/21 07:08:06;;;;;;;;;;;;;;;-144.99;99.71;52256.50;5076343;28;19944;-75
2022/09/21 07:10:32;;;;;;;;;;;;;;;-144.99;99.93;52268.72;5076522;28;20172;-76
2022/09/21 07:13:02;;;;;;;;;;;;;;;-144.99;99.62;52260.56;5060019;28;19936;-76
2022/09/21 07:15:29;;;;;;;;;;;;;;;-144.99;99.27;52252.44;5065984;28;19978;-75
2022/09/21 07:17:56;;;;;;;;;;;;;;;-144.99;99.57;52272.81;5067856;28;19928;-75
2022/09/21 07:20:22;;;;;;;;;;;;;;;-144.99;99.68;52283.00;5068723;28;19931;-74
2022/09/21 07:22:49;;;;;;;;;;;;;;;-144.99;98.98;52264.66;5058192;28;19929;-75
2022/09/21 07:25:17;;;;;;;;;;;;;;;-144.99;97.70;52256.50;5065512;28;19935;-74
2022/09/21 07:27:43;;;;;;;;;;;;;;;-144.99;96.01;52268.72;5067719;28;19962;-76
2022/09/21 07:30:10;;;;;;;;;;;;;;;-144.99;94.42;52252.44;5067214;28;20276;-75
2022/09/21 07:32:36;;;;;;;;;;;;;;;-144.99;93.29;52268.72;5052936;28;19928;-76
2022/09/21 07:35:03;;;;;;;;;;;;;;;-144.99;92.93;52264.66;5053644;28;19935;-75
2022/09/21 07:37:31;;;;;;;;;;;;;;;-144.99;91.96;52201.47;5065714;28;20299;-76
2022/09/21 07:39:57;;;;;;;;;;;;;;;-144.99;92.94;52215.75;5065436;28;20442;-76
2022/09/21 07:42:26;;;;;;;;;;;;;;;-144.99;92.84;52301.34;5081932;28;19943;-75
2022/09/21 07:44:53;;;;;;;;;;;;;;;-144.99;93.69;52264.66;5086706;28;19996;-76
2022/09/21 07:47:20;;;;;;;;;;;;;;;-144.99;94.17;52215.75;5083574;28;19924;-76
2022/09/21 07:49:46;;;;;;;;;;;;;;;-144.99;93.72;52293.19;5090467;28;20125;-75
2022/09/21 07:52:14;;;;;;;;;;;;;;;-144.99;93.09;52238.16;5088971;28;19912;-76
2022/09/21 07:54:40;;;;;;;;;;;;;;;-144.99;92.92;52207.59;5090644;28;19912;-75
2022/09/21 08:00:00;;;;;;;;;;;;;;;-144.99;90.70;52187.19;5055913;28;19912;-76
2022/09/21 08:02:26;;;;;;;;;;;;;;;-144.99;89.22;52236.13;5090701;28;19991;-76
2022/09/21 08:04:53;;;;;;;;;;;;;;;-144.99;86.93;52215.75;5079011;28;19979;-76
2022/09/21 08:07:20;;;;;;;;;;;;;;;-144.99;84.72;52227.97;5084388;28;19989;-76
2022/09/21 08:09:48;;;;;;;;;;;;;;;-144.99;84.59;52179.06;5085615;28;19916;-77
2022/09/21 08:12:16;;;;;;;;;;;;;;;-144.99;83.22;52211.66;5078192;28;19913;-78
2022/09/21 08:14:42;;;;;;;;;;;;;;;-144.99;82.74;52221.84;5084250;28;20087;-78
2022/09/21 08:17:10;;;;;;;;;;;;;;;-144.99;81.77;52179.06;5084100;28;19951;-80
2022/09/21 08:19:36;;;;;;;;;;;;;;;-144.99;80.00;52179.06;5076939;28;19924;-78
2022/09/21 08:22:04;;;;;;;;;;;;;;;-144.99;78.51;52177.00;5093142;28;19928;-79
2022/09/21 08:24:31;;;;;;;;;;;;;;;-144.99;77.77;52203.50;5091215;28;19924;-76
2022/09/21 08:26:58;;;;;;;;;;;;;;;-144.99;76.15;52170.91;5087469;28;19940;-78
2022/09/21 08:29:24;;;;;;;;;;;;;;;-144.99;76.34;52132.19;5091057;28;19928;-78
2022/09/21 08:31:51;;;;;;;;;;;;;;;-144.99;75.26;52150.53;5081445;28;19923;-78
2022/09/21 08:34:19;;;;;;;;;;;;;;;-144.99;74.11;52170.91;5071708;28;20580;-78
2022/09/21 08:36:45;;;;;;;;;;;;;;;-144.99;72.15;52162.75;5061170;28;19982;-77
2022/09/21 08:39:12;;;;;;;;;;;;;;;-144.99;69.82;52146.44;5050790;28;19933;-78
2022/09/21 08:41:47;;;;;;;;;;;;;;;-144.99;67.77;52187.19;5068632;28;19924;-77
2022/09/21 08:44:17;;;;;;;;;;;;;;;-144.99;66.50;52126.06;5063105;28;19933;-77
2022/09/21 08:46:44;;;;;;;;;;;;;;;-144.99;65.65;52158.66;5048736;28;20030;-76
2022/09/21 08:49:13;;;;;;;;;;;;;;;-144.99;63.80;52162.75;5062866;28;19934;-77
2022/09/21 08:51:47;;;;;;;;;;;;;;;-144.99;64.01;52138.28;5068164;28;19935;-77
2022/09/21 08:54:16;;;;;;;;;;;;;;;-144.99;63.15;52136.25;5070824;28;19938;-78
2022/09/21 08:56:43;;;;;;;;;;;;;;;-144.99;63.24;52126.06;5063694;28;19933;-75
2022/09/21 08:59:11;;;;;;;;;;;;;;;-144.99;62.68;52105.69;5061729;28;19935;-76
2022/09/21 09:01:46;;;;;;;;;;;;;;;-144.99;60.50;52146.44;5057720;28;19924;-77
2022/09/21 09:04:26;;;;;;;;;;;;;;;-144.99;59.81;52109.75;5062096;28;20007;-77
2022/09/21 09:06:57;;;;;;;;;;;;;;;-144.99;57.47;52126.06;5058148;28;20306;-78
2022/09/21 09:09:38;;;;;;;;;;;;;;;-144.99;56.04;52162.75;5065115;28;19932;-78
2022/09/21 09:12:13;;;;;;;;;;;;;;;-144.99;55.45;52117.91;5042605;28;20472;-79
2022/09/21 09:14:57;;;;;;;;;;;;;;;-144.99;54.06;52146.44;5069177;28;20006;-76
2022/09/21 09:17:29;;;;;;;;;;;;;;;-144.99;52.84;52126.06;5060172;28;19933;-77
2022/09/21 09:19:59;;;;;;;;;;;;;;;-144.99;52.89;52117.91;5065362;28;19936;-78
2022/09/21 09:22:29;;;;;;;;;;;;;;;-144.99;52.05;52109.75;5058186;28;19924;-76
2022/09/21 09:24:58;;;;;;;;;;;;;;;-144.99;50.79;52101.59;5069269;28;19960;-77
2022/09/21 09:27:30;;;;;;;;;;;;;;;-144.99;49.95;52134.22;5069513;28;20319;-77
2022/09/21 09:30:00;;;;;;;;;;;;;;;-144.99;49.11;52069.00;5078813;28;19929;-77
2022/09/21 09:32:30;;;;;;;;;;;;;;;-144.99;48.72;52105.69;5072950;28;20102;-76
2022/09/21 09:35:01;;;;;;;;;;;;;;;-144.99;48.11;52075.09;5056581;28;20466;-77
2022/09/21 09:37:32;;;;;;;;;;;;;;;-144.99;47.32;52073.06;5058173;28;20015;-78
2022/09/21 09:40:00;;;;;;;;;;;;;;;-144.99;45.61;52032.31;5078168;28;19928;-78
2022/09/21 09:42:35;;;;;;;;;;;;;;;-144.99;44.97;52066.97;5063981;28;19931;-77
2022/09/21 09:45:19;;;;;;;;;;;;;;;-144.99;43.64;52034.34;5061265;28;19929;-76
2022/09/21 09:47:51;;;;;;;;;;;;;;;-144.99;42.13;52048.63;5055944;28;19932;-76
2022/09/21 09:50:20;;;;;;;;;;;;;;;-144.99;41.19;52064.91;5056391;28;19956;-76
2022/09/21 09:52:49;;;;;;;;;;;;;;;-144.99;40.79;52056.78;5097808;22;19931;-77
2022/09/21 09:55:19;;;;;;;;;;;;;;;-144.99;40.23;52034.34;5107603;28;19963;-81
2022/09/21 09:57:45;;;;;;;;;;;;;;;-144.99;39.42;52032.31;5110335;28;19947;-80
2022/09/21 10:00:13;;;;;;;;;;;;;;;-144.99;38.80;52034.34;5111069;28;19919;-77
2022/09/21 10:02:45;;;;;;;;;;;;;;;-144.99;38.25;51999.69;5103757;28;19971;-80
2022/09/21 10:05:18;;;;;;;;;;;;;;;-144.99;37.58;51991.56;5092865;28;19981;-78
2022/09/21 10:07:45;;;;;;;;;;;;;;;-144.99;37.34;51991.56;5088503;28;19923;-81
2022/09/21 10:10:29;;;;;;;;;;;;;;;-144.99;36.54;51983.41;5089802;28;19948;-77
2022/09/21 10:12:57;;;;;;;;;;;;;;;-144.99;36.26;51975.25;5085415;28;19912;-79
2022/09/21 10:15:24;;;;;;;;;;;;;;;-144.99;35.98;51979.31;5088302;28;19928;-79
2022/09/21 10:17:57;;;;;;;;;;;;;;;-144.99;34.94;51938.56;5085045;28;19912;-79
2022/09/21 10:20:24;;;;;;;;;;;;;;;-144.99;34.55;51952.81;5087552;28;19912;-77
2022/09/21 10:22:54;;;;;;;;;;;;;;;-144.99;34.17;51930.41;5094293;28;19939;-81
2022/09/21 10:25:21;;;;;;;;;;;;;;;-144.99;33.66;51938.56;5088631;28;19928;-81
2022/09/21 10:27:50;;;;;;;;;;;;;;;-144.99;32.94;51930.41;5090011;28;19929;-78
2022/09/21 10:30:31;;;;;;;;;;;;;;;-144.99;32.92;51905.97;5084246;28;19912;-79
2022/09/21 10:32:59;;;;;;;;;;;;;;;-144.99;32.64;51914.09;5086572;28;19974;-80
2022/09/21 10:35:25;;;;;;;;;;;;;;;-144.99;32.42;51895.75;5077000;28;19931;-79
2022/09/21 10:38:09;;;;;;;;;;;;;;;-144.99;31.29;51861.13;5062197;28;20261;-75
2022/09/21 10:40:36;;;;;;;;;;;;;;;-144.99;30.75;51836.66;5062160;28;19935;-75
2022/09/21 10:43:04;;;;;;;;;;;;;;;-144.99;30.58;51836.66;5063518;28;19929;-77
2022/09/21 10:45:31;;;;;;;;;;;;;;;-144.99;30.58;51836.66;5063383;28;20346;-77
2022/09/21 10:47:59;;;;;;;;;;;;;;;-144.99;30.08;51793.88;5055789;28;19925;-79
2022/09/21 10:50:27;;;;;;;;;;;;;;;-144.99;30.06;51824.44;5061708;28;19928;-75
2022/09/21 10:52:56;;;;;;;;;;;;;;;-144.99;29.63;51791.84;5065520;28;19928;-78
2022/09/21 10:55:23;;;;;;;;;;;;;;;-144.99;29.67;51808.13;5070683;28;19951;-77
2022/09/21 10:57:50;;;;;;;;;;;;;;;-144.99;29.35;51812.22;5071682;28;19932;-75
2022/09/21 11:00:34;;;;;;;;;;;;;;;-144.99;29.47;51808.13;5065113;28;19929;-79
2022/09/21 11:03:01;;;;;;;;;;;;;;;-144.99;28.91;51820.38;5068360;28;19928;-79
2022/09/21 11:05:30;;;;;;;;;;;;;;;-144.99;29.02;51820.38;5071360;28;19928;-79
2022/09/21 11:07:58;;;;;;;;;;;;;;;-144.99;29.11;51791.84;5075024;28;19988;-76
2022/09/21 11:10:28;;;;;;;;;;;;;;;-144.99;29.28;51771.44;5068691;28;19964;-77
2022/09/21 11:13:02;;;;;;;;;;;;;;;-144.99;28.29;51781.63;5065538;28;19928;-79
2022/09/21 11:15:38;;;;;;;;;;;;;;;-144.99;28.47;51795.91;5071378;28;19954;-77
2022/09/21 11:18:10;;;;;;;;;;;;;;;-144.99;28.38;51791.84;5062193;28;19940;-76
2022/09/21 11:20:41;;;;;;;;;;;;;;;-144.99;27.97;51804.06;5062397;28;19928;-79
2022/09/21 11:23:16;;;;;;;;;;;;;;;-144.99;28.19;51812.22;5062784;28;19946;-80
2022/09/21 11:25:46;;;;;;;;;;;;;;;-144.99;28.41;51799.97;5063317;28;20457;-77
2022/09/21 11:28:15;;;;;;;;;;;;;;;-144.99;28.72;52020.09;5062349;28;19936;-79
2022/09/21 11:30:50;;;;;;;;;;;;;;;-144.99;29.72;52069.00;5065407;28;19928;-77
2022/09/21 11:33:23;;;;;;;;;;;;;;;-144.99;30.81;52077.16;5061476;28;19940;-79
2022/09/21 11:35:57;;;;;;;;;;;;;;;-144.99;31.37;51979.31;5066872;28;19928;-75
2022/09/21 11:38:30;;;;;;;;;;;;;;;-144.99;31.28;51918.19;5067190;28;19932;-75
2022/09/21 11:41:06;;;;;;;;;;;;;;;-144.99;30.96;51893.72;5062305;28;19925;-79
2022/09/21 11:43:44;;;;;;;;;;;;;;;-144.99;29.96;51844.81;5061092;28;19928;-78
2022/09/21 11:46:19;;;;;;;;;;;;;;;-144.99;29.42;51799.97;5066350;28;19937;-75
2022/09/21 11:48:59;;;;;;;;;;;;;;;-144.99;29.08;51808.13;5062359;28;19959;-77
2022/09/21 11:51:38;;;;;;;;;;;;;;;-144.99;28.86;51783.69;5059075;28;20434;-77
2022/09/21 11:54:37;;;;;;;;;;;;;;;-144.99;28.34;51840.75;5061318;28;19932;-78
2022/09/21 11:57:09;;;;;;;;;;;;;;;-144.99;28.02;51775.53;4996664;28;20032;-74
2022/09/21 11:59:42;;;;;;;;;;;;;;;-144.99;27.66;51795.91;5005952;28;20404;-78
2022/09/21 12:02:26;;;;;;;;;;;;;;;-144.99;28.58;51963.03;5033809;28;20122;-77
2022/09/21 12:04:57;;;;;;;;;;;;;;;-144.99;28.72;52018.03;5063502;28;20341;-77
2022/09/21 12:07:32;;;;;;;;;;;;;;;-144.99;29.14;52007.84;5067430;28;20000;-79
2022/09/21 12:10:07;;;;;;;;;;;;;;;-144.99;29.47;52079.19;5066432;28;19924;-77
2022/09/21 12:12:36;;;;;;;;;;;;;;;-144.99;30.42;52121.97;5066476;28;20147;-78
2022/09/21 12:15:04;;;;;;;;;;;;;;;-144.99;31.64;52170.91;5064482;28;19932;-79
2022/09/21 12:17:38;;;;;;;;;;;;;;;-144.99;32.46;52166.81;5088300;28;20003;-80
2022/09/21 12:20:08;;;;;;;;;;;;;;;-144.99;32.59;52005.81;5080110;28;19940;-79
2022/09/21 12:22:36;;;;;;;;;;;;;;;-144.99;31.79;52016.00;5067816;28;19928;-78
2022/09/21 12:25:05;;;;;;;;;;;;;;;-144.99;30.87;51995.63;5071264;28;19925;-79
2022/09/21 12:27:34;;;;;;;;;;;;;;;-144.99;31.29;51930.41;5064967;28;19951;-79
2022/09/21 12:30:02;;;;;;;;;;;;;;;-144.99;29.88;52101.59;5069753;28;19938;-79
2022/09/21 12:32:36;;;;;;;;;;;;;;;-144.99;30.27;52113.84;5057775;28;19929;-79
2022/09/21 12:35:05;;;;;;;;;;;;;;;-144.99;31.04;52130.13;5063793;28;20264;-78
2022/09/21 12:37:35;;;;;;;;;;;;;;;-144.99;31.19;52117.91;5062412;28;19938;-77